Time;durP1;ratioP1;P1;durP2;ratioP2;P2;SDS_P1;SDS_P2;PMS_P1;PMS_P2;Temp;Humidity;BMP_temperature;BMP_pressure;BME280_temperature;BME280_humidity;BME280_pressure;Samples;Min_cycle;Max_cycle;Signal;HPM_P1;HPM_P2
2022/07/14 00:01:53;;;;;;;0.32;0.22;;;21.20;73.10;;;;;;6199883;28;20062;-83
2022/07/14 00:04:55;;;;;;;0.98;0.45;;;21.10;72.50;;;;;;6199758;28;20133;-84
2022/07/14 00:07:57;;;;;;;1.20;0.65;;;21.00;72.60;;;;;;6192947;28;20053;-84
2022/07/14 00:10:59;;;;;;;1.90;0.63;;;20.90;73.20;;;;;;6175949;28;20401;-85
2022/07/14 00:14:00;;;;;;;1.33;0.60;;;20.90;73.40;;;;;;6176558;28;20058;-84
2022/07/14 00:17:03;;;;;;;2.83;0.80;;;20.90;73.90;;;;;;6181992;28;20058;-84
2022/07/14 00:20:06;;;;;;;2.10;0.60;;;20.90;74.10;;;;;;6203820;28;20092;-83
2022/07/14 00:23:07;;;;;;;1.38;0.40;;;20.80;74.50;;;;;;6205246;28;20052;-84
2022/07/14 00:26:10;;;;;;;2.60;0.75;;;20.70;75.60;;;;;;6195162;28;20422;-84
2022/07/14 00:29:12;;;;;;;1.30;0.30;;;20.50;76.40;;;;;;6182537;28;20055;-85
2022/07/14 00:32:15;;;;;;;3.25;0.45;;;20.40;77.20;;;;;;6186347;28;20455;-84
2022/07/14 00:35:17;;;;;;;0.70;0.43;;;20.30;77.90;;;;;;6204717;28;20089;-82
2022/07/14 00:38:18;;;;;;;1.50;0.60;;;20.20;78.90;;;;;;6205444;28;20042;-83
2022/07/14 00:41:20;;;;;;;2.72;0.40;;;20.10;78.90;;;;;;6205541;28;20186;-84
2022/07/14 00:44:22;;;;;;;2.47;0.63;;;19.90;79.40;;;;;;6205602;28;20050;-85
2022/07/14 00:47:25;;;;;;;2.25;0.70;;;19.80;80.00;;;;;;6204923;28;20100;-85
2022/07/14 00:50:27;;;;;;;1.23;0.40;;;19.80;80.70;;;;;;6194120;28;20051;-83
2022/07/14 00:53:29;;;;;;;1.10;0.43;;;19.60;81.20;;;;;;6188530;28;20057;-84
2022/07/14 00:56:30;;;;;;;1.27;0.60;;;19.60;81.90;;;;;;6186701;28;20078;-83
2022/07/14 00:59:32;;;;;;;1.55;0.70;;;19.40;81.90;;;;;;6195955;28;20133;-84
2022/07/14 01:02:36;;;;;;;1.40;0.40;;;19.20;82.60;;;;;;6210682;28;20165;-82
2022/07/14 01:05:38;;;;;;;1.95;0.98;;;19.10;83.50;;;;;;6211600;28;20113;-84
2022/07/14 01:08:41;;;;;;;1.10;0.60;;;19.10;84.20;;;;;;6210295;28;20121;-83
2022/07/14 01:11:42;;;;;;;1.45;0.68;;;19.00;84.70;;;;;;6211263;28;20118;-84
2022/07/14 01:14:44;;;;;;;1.02;0.32;;;18.90;85.10;;;;;;6210826;28;20069;-83
2022/07/14 01:17:48;;;;;;;5.57;0.80;;;18.80;85.30;;;;;;6211166;28;20492;-84
2022/07/14 01:20:50;;;;;;;4.13;0.65;;;18.70;85.50;;;;;;6211819;28;20034;-84
2022/07/14 01:24:23;;;;;;;0.90;0.40;;;18.60;86.40;;;;;;6213644;28;20134;-83
2022/07/14 01:34:35;;;;;;;1.70;0.68;;;18.40;88.00;;;;;;6211132;28;20110;-84
2022/07/14 01:37:37;;;;;;;0.70;0.40;;;18.40;88.60;;;;;;6209830;28;20493;-83
2022/07/14 01:40:39;;;;;;;2.35;0.65;;;18.40;88.50;;;;;;6211395;28;20128;-84
2022/07/14 01:43:42;;;;;;;1.33;0.50;;;18.30;88.60;;;;;;6211926;28;20108;-84
2022/07/14 01:46:44;;;;;;;0.88;0.50;;;18.40;89.10;;;;;;6212614;28;20105;-85
2022/07/14 01:49:45;;;;;;;2.08;1.25;;;18.40;89.30;;;;;;6212183;28;20129;-84
2022/07/14 01:52:47;;;;;;;2.70;0.60;;;18.30;89.60;;;;;;6211918;28;20054;-84
2022/07/14 01:55:49;;;;;;;1.00;0.65;;;18.40;89.60;;;;;;6211662;28;20042;-85
2022/07/14 01:58:52;;;;;;;1.65;0.63;;;18.30;89.80;;;;;;6212703;28;20053;-85
2022/07/14 02:01:54;;;;;;;5.60;0.82;;;18.30;90.10;;;;;;6213364;28;20050;-85
2022/07/14 02:04:56;;;;;;;2.85;0.98;;;18.20;90.10;;;;;;6212274;28;20105;-85
2022/07/14 02:07:57;;;;;;;1.42;0.50;;;18.20;90.20;;;;;;6212692;28;20053;-84
2022/07/14 02:14:19;;;;;;;0.63;0.43;;;18.00;90.50;;;;;;6211630;28;20042;-84
2022/07/14 02:17:21;;;;;;;1.42;0.65;;;18.00;90.70;;;;;;6189305;28;20046;-84
2022/07/14 02:20:23;;;;;;;2.63;0.90;;;17.90;90.80;;;;;;6188370;28;20055;-84
2022/07/14 02:23:25;;;;;;;0.98;0.52;;;17.90;90.90;;;;;;6186823;28;20055;-85
2022/07/14 02:26:27;;;;;;;1.00;0.43;;;17.80;91.00;;;;;;6191124;28;20061;-85
2022/07/14 02:29:31;;;;;;;1.73;0.60;;;17.70;91.00;;;;;;6187058;28;20125;-82
2022/07/14 02:32:33;;;;;;;1.73;0.80;;;17.60;91.30;;;;;;6190371;28;20051;-84
2022/07/14 02:35:36;;;;;;;1.52;0.70;;;17.60;91.70;;;;;;6190011;28;20068;-83
2022/07/14 02:38:38;;;;;;;2.17;0.40;;;17.50;91.60;;;;;;6187938;28;20046;-83
2022/07/14 02:41:40;;;;;;;2.22;0.70;;;17.60;91.70;;;;;;6184452;28;20052;-84
2022/07/14 02:44:43;;;;;;;0.70;0.40;;;17.60;91.60;;;;;;6186457;28;20046;-83
2022/07/14 02:47:45;;;;;;;3.60;0.85;;;17.60;91.60;;;;;;6188791;28;20508;-83
2022/07/14 02:50:47;;;;;;;2.90;0.63;;;17.60;91.50;;;;;;6186418;28;20419;-84
2022/07/14 02:53:48;;;;;;;0.40;0.35;;;17.50;91.60;;;;;;6187956;28;20058;-83
2022/07/14 02:56:50;;;;;;;0.70;0.40;;;17.50;91.80;;;;;;6186514;28;20111;-83
2022/07/14 02:59:53;;;;;;;0.50;0.43;;;17.50;91.90;;;;;;6188603;28;20061;-84
2022/07/14 03:02:55;;;;;;;0.82;0.50;;;17.50;91.90;;;;;;6188919;28;20126;-82
2022/07/14 03:05:57;;;;;;;3.22;0.60;;;17.50;91.90;;;;;;6185970;28;20472;-83
2022/07/14 03:08:58;;;;;;;3.35;0.73;;;17.50;91.80;;;;;;6189133;28;20057;-84
2022/07/14 03:12:00;;;;;;;2.60;0.55;;;17.50;91.90;;;;;;6202118;28;20106;-83
2022/07/14 03:15:04;;;;;;;0.88;0.65;;;17.50;91.90;;;;;;6215304;28;20052;-84
2022/07/14 03:18:06;;;;;;;1.65;0.65;;;17.50;91.90;;;;;;6215007;28;20061;-83
2022/07/14 03:21:08;;;;;;;1.17;0.50;;;17.40;91.90;;;;;;6215436;28;20118;-83
2022/07/14 03:24:10;;;;;;;1.10;0.57;;;17.50;92.00;;;;;;6230573;28;20068;-82
2022/07/14 03:27:12;;;;;;;2.38;0.52;;;17.50;91.80;;;;;;6239474;28;20215;-83
2022/07/14 03:30:15;;;;;;;1.38;0.50;;;17.60;91.90;;;;;;6238913;28;20068;-82
2022/07/14 03:33:17;;;;;;;0.70;0.40;;;17.50;91.90;;;;;;6231753;28;20054;-83
2022/07/14 03:36:20;;;;;;;3.88;0.82;;;17.60;91.90;;;;;;6231019;28;20128;-82
2022/07/14 03:39:22;;;;;;;1.75;0.60;;;17.60;91.80;;;;;;6233263;28;20046;-82
2022/07/14 03:42:24;;;;;;;0.93;0.52;;;17.60;91.90;;;;;;6232175;28;20541;-82
2022/07/14 03:45:27;;;;;;;5.57;1.15;;;17.50;91.90;;;;;;6233504;28;20460;-81
2022/07/14 03:48:29;;;;;;;3.80;0.98;;;17.50;92.00;;;;;;6233239;28;20117;-82
2022/07/14 03:51:31;;;;;;;2.00;0.52;;;17.50;91.90;;;;;;6233695;28;20128;-82
2022/07/14 03:54:33;;;;;;;2.63;1.00;;;17.60;91.90;;;;;;6237010;28;20042;-81
2022/07/14 03:57:35;;;;;;;3.17;0.60;;;17.60;91.70;;;;;;6240008;28;20054;-81
2022/07/14 04:00:38;;;;;;;2.63;0.60;;;17.70;91.80;;;;;;6237996;28;20041;-81
2022/07/14 04:03:40;;;;;;;4.07;0.77;;;17.70;91.50;;;;;;6236099;28;20038;-81
2022/07/14 04:06:42;;;;;;;2.70;0.55;;;17.80;91.50;;;;;;6236060;28;20056;-81
2022/07/14 04:09:43;;;;;;;1.58;0.73;;;17.80;91.50;;;;;;6237330;28;20045;-81
2022/07/14 04:12:45;;;;;;;2.50;0.65;;;17.90;91.30;;;;;;6234872;28;20124;-81
2022/07/14 04:15:48;;;;;;;1.55;0.68;;;18.00;91.30;;;;;;6237168;28;20439;-81
2022/07/14 04:18:50;;;;;;;1.33;0.75;;;18.10;91.20;;;;;;6235707;28;20038;-81
2022/07/14 04:21:52;;;;;;;6.55;0.98;;;18.20;91.10;;;;;;6237181;28;20060;-82
2022/07/14 04:24:54;;;;;;;5.13;0.70;;;18.50;90.80;;;;;;6234895;28;20514;-80
2022/07/14 04:27:55;;;;;;;1.75;0.68;;;18.90;90.00;;;;;;6233449;28;20475;-81
2022/07/14 04:30:59;;;;;;;2.40;0.50;;;19.10;89.10;;;;;;6233845;28;20046;-81
2022/07/14 04:34:00;;;;;;;3.15;1.25;;;19.10;88.70;;;;;;6235505;28;20060;-81
2022/07/14 04:37:02;;;;;;;1.45;0.40;;;19.10;88.50;;;;;;6236193;28;20042;-80
2022/07/14 04:40:05;;;;;;;1.95;0.60;;;19.10;88.50;;;;;;6235634;28;20056;-81
2022/07/14 04:43:07;;;;;;;1.70;0.90;;;19.20;88.50;;;;;;6235479;28;20050;-80
2022/07/14 04:46:11;;;;;;;0.70;0.32;;;19.40;88.10;;;;;;6234429;28;20050;-80
2022/07/14 04:52:32;;;;;;;0.98;0.60;;;20.50;85.50;;;;;;6232162;28;20102;-82
2022/07/14 04:55:34;;;;;;;2.20;1.17;;;21.80;80.40;;;;;;6230425;28;20149;-82
2022/07/14 04:58:35;;;;;;;3.95;0.73;;;23.30;75.70;;;;;;6236511;28;20101;-83
2022/07/14 05:01:38;;;;;;;6.15;0.63;;;25.30;68.50;;;;;;6234247;28;20141;-82
2022/07/14 05:04:40;;;;;;;2.58;0.95;;;26.80;62.30;;;;;;6230481;28;20056;-83
2022/07/14 05:07:42;;;;;;;2.40;0.85;;;28.00;57.70;;;;;;6230878;28;20054;-83
2022/07/14 05:10:44;;;;;;;2.47;0.65;;;29.00;54.70;;;;;;6231992;28;20044;-83
2022/07/14 05:13:45;;;;;;;1.35;0.60;;;29.90;52.00;;;;;;6230232;28;20046;-82
2022/07/14 05:16:49;;;;;;;3.92;1.13;;;30.70;50.00;;;;;;6229932;28;20050;-84
2022/07/14 05:19:51;;;;;;;2.38;0.90;;;31.60;48.00;;;;;;6230055;28;20113;-84
2022/07/14 05:22:53;;;;;;;1.20;0.70;;;32.50;46.10;;;;;;6229119;28;20042;-84
2022/07/14 05:25:55;;;;;;;2.75;0.70;;;33.10;44.40;;;;;;6231379;28;20057;-83
2022/07/14 05:28:56;;;;;;;0.35;0.30;;;32.90;43.90;;;;;;6230010;28;20042;-84
2022/07/14 05:32:00;;;;;;;1.75;0.65;;;33.60;42.80;;;;;;6231007;28;20068;-83
2022/07/14 05:35:03;;;;;;;0.73;0.40;;;33.90;41.00;;;;;;6230863;28;20038;-83
2022/07/14 05:38:04;;;;;;;1.00;0.60;;;33.30;40.80;;;;;;6230633;28;20054;-83
2022/07/14 05:41:06;;;;;;;2.25;0.60;;;32.20;41.60;;;;;;6230609;28;20060;-83
2022/07/14 05:44:08;;;;;;;0.82;0.35;;;30.90;43.10;;;;;;6229749;28;20060;-83
2022/07/14 05:47:11;;;;;;;7.93;1.23;;;30.10;44.90;;;;;;6228578;28;20073;-83
2022/07/14 05:50:13;;;;;;;1.27;0.50;;;30.10;45.60;;;;;;6229736;28;20046;-83
2022/07/14 05:53:15;;;;;;;2.90;0.68;;;31.00;44.80;;;;;;6229488;28;20053;-84
2022/07/14 05:56:17;;;;;;;1.67;0.77;;;33.40;41.40;;;;;;6230350;28;20078;-84
2022/07/14 05:59:19;;;;;;;2.22;0.60;;;35.60;38.30;;;;;;6231247;28;20065;-85
2022/07/14 06:02:22;;;;;;;1.20;0.50;;;37.10;36.20;;;;;;6230984;28;20050;-83
2022/07/14 06:05:23;;;;;;;3.95;0.50;;;36.30;35.90;;;;;;6231810;28;20061;-83
2022/07/14 06:08:25;;;;;;;2.05;0.60;;;34.50;37.70;;;;;;6237037;28;20046;-82
2022/07/14 06:11:27;;;;;;;2.50;0.40;;;33.10;39.90;;;;;;6234565;28;20056;-83
2022/07/14 06:14:28;;;;;;;4.95;0.63;;;32.10;41.50;;;;;;6221413;28;20058;-82
2022/07/14 06:17:32;;;;;;;1.98;0.65;;;31.40;42.70;;;;;;6230887;28;20045;-82
2022/07/14 06:20:33;;;;;;;2.53;0.80;;;31.40;43.00;;;;;;6229837;28;20042;-83
2022/07/14 06:23:35;;;;;;;1.95;0.50;;;31.30;43.60;;;;;;6230224;28;20053;-83
2022/07/14 06:26:37;;;;;;;8.50;0.80;;;32.10;43.30;;;;;;6230478;28;20045;-83
2022/07/14 06:29:38;;;;;;;13.20;0.88;;;33.80;40.60;;;;;;6230101;28;20061;-83
2022/07/14 06:32:41;;;;;;;2.88;1.02;;;35.20;39.00;;;;;;6227185;28;20057;-84
2022/07/14 06:35:43;;;;;;;4.15;0.73;;;35.40;37.90;;;;;;6228159;28;20046;-82
2022/07/14 06:38:45;;;;;;;5.25;0.85;;;34.80;38.20;;;;;;6229816;28;20038;-83
2022/07/14 06:41:47;;;;;;;5.82;1.20;;;34.10;39.10;;;;;;6228210;28;20057;-84
2022/07/14 06:44:49;;;;;;;1.92;0.63;;;34.30;39.50;;;;;;6228156;28;20056;-84
2022/07/14 06:47:52;;;;;;;1.38;0.45;;;35.40;37.90;;;;;;6227701;28;20422;-83
2022/07/14 06:50:53;;;;;;;5.95;0.98;;;36.30;35.80;;;;;;6228810;28;20060;-84
2022/07/14 06:53:55;;;;;;;1.75;0.70;;;36.00;35.60;;;;;;6229206;28;20054;-84
2022/07/14 06:56:57;;;;;;;8.68;0.95;;;35.70;35.50;;;;;;6227163;28;20042;-83
2022/07/14 06:59:58;;;;;;;1.73;0.75;;;35.40;35.30;;;;;;6227102;28;20050;-83
2022/07/14 07:03:01;;;;;;;8.65;1.50;;;35.50;36.30;;;;;;6233244;28;20045;-83
2022/07/14 07:09:22;;;;;;;5.53;2.55;;;35.50;36.60;;;;;;6233464;28;20553;-83
2022/07/14 07:12:24;;;;;;;6.28;1.58;;;35.80;36.40;;;;;;6232377;28;20656;-82
2022/07/14 07:15:26;;;;;;;2.70;0.80;;;36.90;35.30;;;;;;6231183;28;20429;-82
2022/07/14 07:18:29;;;;;;;4.53;0.82;;;38.60;33.60;;;;;;6231926;28;20087;-83
2022/07/14 07:21:31;;;;;;;5.13;0.88;;;38.80;33.10;;;;;;6233270;28;20041;-83
2022/07/14 07:24:33;;;;;;;2.65;0.77;;;38.50;33.30;;;;;;6232661;28;20466;-83
2022/07/14 07:27:35;;;;;;;10.05;1.17;;;38.80;33.30;;;;;;6228001;28;20053;-83
2022/07/14 07:30:37;;;;;;;7.03;0.90;;;39.70;32.50;;;;;;6229944;28;20042;-83
2022/07/14 07:33:40;;;;;;;5.45;0.75;;;40.30;30.80;;;;;;6229333;28;20422;-83
2022/07/14 07:36:42;;;;;;;2.97;0.80;;;39.90;30.90;;;;;;6226663;28;20050;-86
2022/07/14 07:39:43;;;;;;;1.70;0.93;;;39.00;31.60;;;;;;6227524;28;20060;-85
2022/07/14 07:42:45;;;;;;;2.95;0.68;;;38.90;32.40;;;;;;6226525;28;20132;-85
2022/07/14 07:45:47;;;;;;;3.28;0.52;;;40.20;31.70;;;;;;6227808;28;20068;-86
2022/07/14 07:48:50;;;;;;;1.52;0.68;;;41.80;30.50;;;;;;6225815;28;20058;-82
2022/07/14 07:51:58;;;;;;;5.05;0.93;;;43.20;29.60;;;;;;6224863;28;20511;-83
2022/07/14 07:55:00;;;;;;;6.25;1.10;;;43.70;28.80;;;;;;6223967;28;20053;-83
2022/07/14 07:58:02;;;;;;;7.82;0.98;;;41.70;29.60;;;;;;6223613;28;20046;-84
2022/07/14 08:01:04;;;;;;;5.65;0.82;;;39.60;31.00;;;;;;6183994;28;20057;-83
2022/07/14 08:04:07;;;;;;;3.88;0.50;;;37.60;32.90;;;;;;6214557;28;20052;-83
2022/07/14 08:07:09;;;;;;;7.80;1.10;;;36.40;33.80;;;;;;6224167;28;20061;-84
2022/07/14 08:10:10;;;;;;;4.15;0.80;;;35.40;34.80;;;;;;6224287;28;20054;-82
2022/07/14 08:13:12;;;;;;;2.42;0.68;;;34.60;35.40;;;;;;6224556;28;20057;-82
2022/07/14 08:16:14;;;;;;;7.63;0.70;;;34.30;35.90;;;;;;6223674;28;20046;-84
2022/07/14 08:19:17;;;;;;;10.00;0.90;;;34.00;36.10;;;;;;6225030;28;20046;-84
2022/07/14 08:22:23;;;;;;;4.32;0.80;;;33.70;36.40;;;;;;6225765;28;20481;-84
2022/07/14 08:25:25;;;;;;;3.83;1.10;;;33.50;36.80;;;;;;6224756;28;20060;-84
2022/07/14 08:28:26;;;;;;;2.92;0.60;;;33.40;36.60;;;;;;6230356;28;20060;-85
2022/07/14 08:31:28;;;;;;;4.53;0.70;;;33.50;36.70;;;;;;6229698;28;20052;-85
2022/07/14 08:34:31;;;;;;;2.95;0.50;;;33.60;36.90;;;;;;6219316;28;20045;-85
2022/07/14 08:37:34;;;;;;;2.10;0.77;;;33.80;36.10;;;;;;6229367;28;20085;-85
2022/07/14 08:40:37;;;;;;;0.82;0.35;;;33.80;36.30;;;;;;6229523;28;20046;-84
2022/07/14 08:43:39;;;;;;;1.80;0.57;;;33.90;36.10;;;;;;6231050;28;20041;-84
2022/07/14 08:46:41;;;;;;;1.55;0.35;;;34.00;36.00;;;;;;6232426;28;20133;-85
2022/07/14 08:49:45;;;;;;;2.85;0.47;;;34.10;36.10;;;;;;6236748;28;20137;-84
2022/07/14 08:52:47;;;;;;;1.63;1.00;;;34.20;36.30;;;;;;6232711;28;20422;-84
2022/07/14 08:55:50;;;;;;;4.20;0.77;;;34.20;36.40;;;;;;6231673;28;20057;-84
2022/07/14 08:58:51;;;;;;;3.70;0.82;;;34.40;36.90;;;;;;6230000;28;20052;-82
2022/07/14 09:01:54;;;;;;;6.50;1.00;;;34.70;36.40;;;;;;6229548;28;20411;-83
2022/07/14 09:04:57;;;;;;;1.27;0.45;;;34.80;36.00;;;;;;6222970;28;20053;-84
2022/07/14 09:07:59;;;;;;;4.95;1.00;;;34.90;35.80;;;;;;6222421;28;20065;-83
2022/07/14 09:11:01;;;;;;;3.05;0.68;;;35.00;35.40;;;;;;6218833;28;20595;-82
2022/07/14 09:14:09;;;;;;;4.50;1.35;;;35.00;35.20;;;;;;6228114;28;20563;-82
2022/07/14 09:17:15;;;;;;;12.50;1.15;;;35.10;34.50;;;;;;6217896;28;20065;-83
2022/07/14 09:20:19;;;;;;;1.90;0.60;;;35.10;34.80;;;;;;6202177;28;20054;-83
2022/07/14 09:23:27;;;;;;;4.22;0.65;;;35.30;34.30;;;;;;6203731;28;20093;-84
2022/07/14 09:26:29;;;;;;;5.57;0.60;;;35.40;34.70;;;;;;6204283;28;20491;-84
2022/07/14 09:29:31;;;;;;;9.40;0.85;;;35.60;34.30;;;;;;6204846;28;20050;-84
2022/07/14 09:32:43;;;;;;;6.93;1.15;;;35.80;33.90;;;;;;6203639;28;20819;-85
2022/07/14 09:35:47;;;;;;;0.60;0.30;;;36.10;33.20;;;;;;6202938;28;20110;-84
2022/07/14 09:38:49;;;;;;;4.65;0.70;;;36.30;33.40;;;;;;6203054;28;20101;-84
2022/07/14 09:41:53;;;;;;;2.15;0.47;;;36.30;32.90;;;;;;6237564;28;20041;-84
2022/07/14 09:45:09;;;;;;;1.95;0.40;;;36.40;32.70;;;;;;6228874;28;20045;-83
2022/07/14 09:48:12;;;;;;;2.67;0.30;;;36.60;31.90;;;;;;6244421;28;20045;-84
2022/07/14 09:51:16;;;;;;;1.58;0.55;;;36.50;30.80;;;;;;6252034;28;20136;-85
2022/07/14 09:54:40;;;;;;;2.17;0.50;;;36.50;31.20;;;;;;6250823;28;20054;-84
2022/07/14 09:57:42;;;;;;;2.97;0.50;;;36.40;31.40;;;;;;6226900;28;20049;-84
2022/07/14 10:00:44;;;;;;;2.58;0.50;;;36.40;31.20;;;;;;6227951;28;20054;-83
2022/07/14 10:03:47;;;;;;;1.88;0.50;;;36.40;31.10;;;;;;6240622;28;20045;-84
2022/07/14 10:06:50;;;;;;;1.58;0.52;;;36.50;31.20;;;;;;6251159;28;20053;-85
2022/07/14 10:10:04;;;;;;;3.63;0.50;;;36.70;31.40;;;;;;6248601;28;20485;-84
2022/07/14 10:13:06;;;;;;;13.77;0.82;;;36.90;31.80;;;;;;6219731;28;20054;-84
2022/07/14 10:16:08;;;;;;;5.88;1.13;;;37.70;30.40;;;;;;6231724;28;20046;-83
2022/07/14 10:19:10;;;;;;;2.25;0.60;;;38.60;30.20;;;;;;6216110;28;20049;-84
2022/07/14 10:22:14;;;;;;;2.33;0.47;;;39.00;29.70;;;;;;6226039;28;20480;-84
2022/07/14 10:25:16;;;;;;;2.85;0.50;;;38.90;29.40;;;;;;6225858;28;20054;-85
2022/07/14 10:28:19;;;;;;;1.98;0.52;;;38.70;29.60;;;;;;6225473;28;20435;-83
2022/07/14 10:31:27;;;;;;;5.07;0.70;;;38.70;29.30;;;;;;6226067;28;20045;-84
2022/07/14 10:34:36;;;;;;;5.45;0.50;;;38.60;29.30;;;;;;6226475;28;20491;-84
2022/07/14 10:37:51;;;;;;;4.88;0.65;;;38.60;29.10;;;;;;6226476;28;20069;-82
2022/07/14 10:41:03;;;;;;;4.53;0.90;;;38.30;29.20;;;;;;6234119;28;20040;-82
2022/07/14 10:44:10;;;;;;;3.53;0.45;;;38.40;29.40;;;;;;6248848;28;20356;-82
2022/07/14 10:47:13;;;;;;;5.47;0.32;;;38.40;29.60;;;;;;6242833;28;20532;-82
2022/07/14 10:50:19;;;;;;;4.05;0.40;;;38.50;29.60;;;;;;6226794;28;20074;-84
2022/07/14 10:53:22;;;;;;;1.93;0.80;;;38.30;29.40;;;;;;6218098;28;20467;-81
2022/07/14 10:56:26;;;;;;;2.95;0.65;;;38.10;29.90;;;;;;6221031;28;20050;-83
2022/07/14 10:59:36;;;;;;;4.07;0.82;;;38.00;29.70;;;;;;6225230;28;20052;-82
2022/07/14 11:02:38;;;;;;;3.80;0.47;;;38.00;29.90;;;;;;6224984;28;20517;-84
2022/07/14 11:06:12;;;;;;;5.22;0.55;;;38.40;29.90;;;;;;6225130;28;20076;-82
2022/07/14 11:09:40;;;;;;;3.67;0.77;;;38.50;29.30;;;;;;6224461;28;20046;-82
2022/07/14 11:13:11;;;;;;;3.20;0.30;;;38.70;29.50;;;;;;6238643;28;20068;-83
2022/07/14 11:16:13;;;;;;;3.35;0.38;;;39.00;29.40;;;;;;6247923;28;20046;-82
2022/07/14 11:19:22;;;;;;;3.58;0.45;;;39.20;29.40;;;;;;6230650;28;20056;-84
2022/07/14 11:22:24;;;;;;;3.33;0.73;;;39.30;29.20;;;;;;6208742;28;20177;-82
2022/07/14 11:25:28;;;;;;;6.75;0.75;;;39.30;29.50;;;;;;6225761;28;20415;-83
2022/07/14 11:28:43;;;;;;;2.33;0.30;;;39.30;29.50;;;;;;6225170;28;20420;-82
2022/07/14 11:31:46;;;;;;;4.60;0.70;;;39.20;29.50;;;;;;6237739;28;20576;-84
2022/07/14 11:38:24;;;;;;;4.50;0.57;;;39.80;29.90;;;;;;6248659;28;20480;-83
2022/07/14 11:41:42;;;;;;;0.85;0.40;;;40.10;29.10;;;;;;6224617;28;20523;-84
2022/07/14 11:44:47;;;;;;;1.52;0.30;;;40.10;28.90;;;;;;6223085;28;20057;-83
2022/07/14 11:47:50;;;;;;;1.85;0.40;;;40.40;29.10;;;;;;6237628;28;20053;-83
2022/07/14 11:50:52;;;;;;;4.10;0.50;;;40.50;28.80;;;;;;6242651;28;20124;-84
2022/07/14 11:53:56;;;;;;;2.35;0.93;;;40.20;29.50;;;;;;6240778;28;20064;-85
2022/07/14 11:57:02;;;;;;;1.98;0.40;;;40.00;29.20;;;;;;6248857;28;20053;-85
2022/07/14 12:00:09;;;;;;;1.47;0.67;;;39.40;29.30;;;;;;6236341;28;20050;-85
2022/07/14 12:03:16;;;;;;;;;;;39.00;29.50;;;;;;6227655;28;20424;-84
2022/07/14 12:06:18;;;;;;;3.47;0.57;;;38.60;29.90;;;;;;6228747;28;20320;-83
2022/07/14 12:09:29;;;;;;;8.23;0.50;;;38.20;30.00;;;;;;6250787;28;20057;-84
2022/07/14 12:12:40;;;;;;;3.05;0.60;;;38.10;30.00;;;;;;6249849;28;20049;-83
2022/07/14 12:15:44;;;;;;;0.93;0.57;;;37.90;30.20;;;;;;6239627;28;20046;-84
2022/07/14 12:18:46;;;;;;;3.92;0.40;;;37.60;30.10;;;;;;6230881;28;20037;-82
2022/07/14 12:21:48;;;;;;;1.95;0.30;;;37.50;30.60;;;;;;6217043;28;20050;-85
2022/07/14 12:24:50;;;;;;;6.97;0.68;;;37.50;30.60;;;;;;6233058;28;20057;-82
2022/07/14 12:27:51;;;;;;;3.92;0.57;;;37.90;30.40;;;;;;6230703;28;20046;-85
2022/07/14 12:30:57;;;;;;;5.25;0.70;;;38.30;30.30;;;;;;6229872;28;20447;-84
2022/07/14 12:34:00;;;;;;;2.28;0.80;;;38.80;29.90;;;;;;6231671;28;20057;-84
2022/07/14 12:37:04;;;;;;;2.17;0.32;;;39.10;29.90;;;;;;6229746;28;20396;-85
2022/07/14 12:40:07;;;;;;;0.85;0.50;;;39.50;29.70;;;;;;6228729;28;20141;-83
2022/07/14 12:43:09;;;;;;;1.92;0.57;;;39.90;29.30;;;;;;6236463;28;20046;-84
2022/07/14 12:46:16;;;;;;;7.50;0.60;;;40.20;29.30;;;;;;6229955;28;20435;-85
2022/07/14 12:49:18;;;;;;;2.75;0.50;;;40.40;29.10;;;;;;6228541;28;20057;-85
2022/07/14 12:52:20;;;;;;;11.90;1.00;;;40.70;29.10;;;;;;6236721;28;20053;-85
2022/07/14 12:55:32;;;;;;;1.55;0.60;;;41.00;28.60;;;;;;6252218;28;20057;-84
2022/07/14 12:58:34;;;;;;;5.28;0.82;;;41.10;28.40;;;;;;6248481;28;20073;-85
2022/07/14 13:01:53;;;;;;;2.40;0.40;;;41.20;28.50;;;;;;6229986;28;20056;-84
2022/07/14 13:05:02;;;;;;;3.22;0.52;;;41.30;28.60;;;;;;6227490;28;20042;-83
2022/07/14 13:08:33;;;;;;;2.72;0.50;;;41.50;28.30;;;;;;6242643;28;20053;-84
2022/07/14 13:11:35;;;;;;;0.65;0.40;;;41.40;28.20;;;;;;6243808;28;20034;-84
2022/07/14 13:14:55;;;;;;;3.70;0.57;;;41.30;28.00;;;;;;6222733;28;20413;-83
2022/07/14 13:18:00;;;;;;;10.90;1.25;;;41.00;28.00;;;;;;6201967;28;20233;-83
2022/07/14 13:21:02;;;;;;;4.35;0.70;;;40.90;28.20;;;;;;6208942;28;20046;-84
2022/07/14 13:24:13;;;;;;;7.13;0.55;;;40.70;28.30;;;;;;6236289;28;20516;-82
2022/07/14 13:27:17;;;;;;;10.77;0.40;;;40.60;28.70;;;;;;6244147;28;20053;-83
2022/07/14 13:30:19;;;;;;;8.75;0.90;;;40.40;29.30;;;;;;6228687;28;20050;-84
2022/07/14 13:33:22;;;;;;;5.22;0.43;;;40.40;29.70;;;;;;6230024;28;20045;-83
2022/07/14 13:36:25;;;;;;;1.73;0.40;;;40.60;29.80;;;;;;6248275;28;20045;-84
2022/07/14 13:39:27;;;;;;;4.85;0.60;;;40.40;29.80;;;;;;6253720;28;20046;-84
2022/07/14 13:42:29;;;;;;;4.25;0.57;;;40.20;30.00;;;;;;6252672;28;20064;-85
2022/07/14 13:45:31;;;;;;;4.00;0.43;;;40.10;30.00;;;;;;6229107;28;20056;-84
2022/07/14 13:48:34;;;;;;;3.15;0.60;;;39.90;30.10;;;;;;6227617;28;20503;-84
2022/07/14 13:54:55;;;;;;;3.38;0.50;;;39.90;30.20;;;;;;6225829;28;20098;-86
2022/07/14 13:57:57;;;;;;;2.05;0.30;;;39.80;30.50;;;;;;6228513;28;20050;-83
2022/07/14 14:00:59;;;;;;;4.20;0.60;;;39.50;30.70;;;;;;6250259;28;20565;-83
2022/07/14 14:04:02;;;;;;;2.55;0.38;;;39.30;31.00;;;;;;6235483;28;20041;-84
2022/07/14 14:07:04;;;;;;;3.03;0.40;;;39.20;31.30;;;;;;6229515;28;20125;-84
2022/07/14 14:10:07;;;;;;;4.13;0.63;;;39.30;31.00;;;;;;6231328;28;20133;-83
2022/07/14 14:13:09;;;;;;;6.18;1.48;;;39.10;30.10;;;;;;6228654;28;20167;-83
2022/07/14 14:16:10;;;;;;;3.75;0.40;;;38.90;30.50;;;;;;6247309;28;20050;-84
2022/07/14 14:19:17;;;;;;;2.00;0.60;;;38.90;30.80;;;;;;6244451;28;20064;-83
2022/07/14 14:22:20;;;;;;;4.35;0.50;;;38.70;30.80;;;;;;6220770;28;20072;-84
2022/07/14 14:25:21;;;;;;;3.45;0.75;;;39.00;30.60;;;;;;6182938;28;20074;-83
2022/07/14 14:28:24;;;;;;;3.28;0.40;;;39.50;30.50;;;;;;6205071;28;20600;-83
2022/07/14 14:31:26;;;;;;;3.25;0.50;;;39.80;29.90;;;;;;6206519;28;20133;-84
2022/07/14 14:34:29;;;;;;;4.90;0.70;;;39.80;30.00;;;;;;6206598;28;20050;-84
2022/07/14 14:37:31;;;;;;;4.47;0.85;;;39.80;30.30;;;;;;6205156;28;20062;-81
2022/07/14 14:40:33;;;;;;;3.75;0.60;;;39.60;30.40;;;;;;6218744;28;20052;-84
2022/07/14 14:43:35;;;;;;;4.38;0.80;;;39.20;31.50;;;;;;6226359;28;20441;-85
2022/07/14 14:46:36;;;;;;;4.43;0.93;;;38.90;33.60;;;;;;6229759;28;20046;-85
2022/07/14 14:49:52;;;;;;;3.90;1.00;;;38.70;34.40;;;;;;6228077;28;20510;-84
2022/07/14 14:52:54;;;;;;;9.50;0.98;;;38.60;34.50;;;;;;6239864;28;20046;-83
2022/07/14 14:55:56;;;;;;;2.22;0.70;;;38.50;34.70;;;;;;6250346;28;20056;-84
2022/07/14 14:58:58;;;;;;;6.35;1.55;;;38.30;34.80;;;;;;6245111;28;20046;-85
2022/07/14 15:01:59;;;;;;;8.30;0.88;;;37.90;35.30;;;;;;6215376;28;20492;-84
2022/07/14 15:05:03;;;;;;;2.33;0.93;;;37.60;35.40;;;;;;6206436;28;20050;-84
2022/07/14 15:08:06;;;;;;;6.97;0.90;;;37.50;35.80;;;;;;6206674;28;20101;-83
2022/07/14 15:11:08;;;;;;;4.10;0.80;;;37.40;35.80;;;;;;6209029;28;20133;-83
2022/07/14 15:14:12;;;;;;;7.25;1.10;;;37.40;36.10;;;;;;6206154;28;20057;-83
2022/07/14 15:17:14;;;;;;;2.72;0.95;;;37.40;36.00;;;;;;6205247;28;20047;-83
2022/07/14 15:20:17;;;;;;;3.05;0.95;;;37.50;36.20;;;;;;6201537;28;20050;-84
2022/07/14 15:23:19;;;;;;;9.98;1.80;;;37.30;36.40;;;;;;6211880;28;20061;-83
2022/07/14 15:26:21;;;;;;;4.53;1.77;;;37.30;36.80;;;;;;6207685;28;20046;-84
2022/07/14 15:29:23;;;;;;;5.88;1.75;;;37.10;37.00;;;;;;6215522;28;20060;-84
2022/07/14 15:32:25;;;;;;;7.88;1.05;;;36.90;37.20;;;;;;6230346;28;20046;-84
2022/07/14 15:35:28;;;;;;;6.40;1.23;;;36.90;37.60;;;;;;6231701;28;20056;-84
2022/07/14 15:38:29;;;;;;;7.00;1.27;;;36.80;37.90;;;;;;6236275;28;20386;-84
2022/07/14 15:41:32;;;;;;;4.53;1.13;;;36.70;38.10;;;;;;6234232;28;20049;-85
2022/07/14 15:44:33;;;;;;;3.35;1.00;;;36.50;38.10;;;;;;6231604;28;20134;-84
2022/07/14 15:47:35;;;;;;;4.97;1.00;;;36.30;38.40;;;;;;6233920;28;20137;-84
2022/07/14 15:50:38;;;;;;;5.13;1.00;;;36.20;38.50;;;;;;6238097;28;20056;-84
2022/07/14 15:56:58;;;;;;;6.63;1.45;;;36.20;38.00;;;;;;6905144;23;20115;-78
2022/07/14 16:03:57;;;;;;;6.72;1.45;;;35.90;38.30;;;;;;6208281;28;20038;-80
2022/07/14 16:07:00;;;;;;;6.80;1.33;;;35.80;38.10;;;;;;6204330;28;20046;-80
2022/07/14 16:10:02;;;;;;;5.18;1.38;;;35.70;38.00;;;;;;6202697;28;20065;-80
2022/07/14 16:13:04;;;;;;;5.15;1.02;;;35.70;37.90;;;;;;6193785;28;20038;-81
2022/07/14 16:16:06;;;;;;;5.40;1.05;;;35.40;38.10;;;;;;6200816;28;20052;-80
2022/07/14 16:19:08;;;;;;;7.93;1.52;;;35.30;38.10;;;;;;6195699;28;20061;-79
2022/07/14 16:22:11;;;;;;;5.20;1.15;;;35.30;37.70;;;;;;6177702;28;20051;-79
2022/07/14 16:25:13;;;;;;;3.40;1.10;;;35.00;37.50;;;;;;6175986;28;20447;-81
2022/07/14 16:28:15;;;;;;;2.78;0.98;;;34.80;36.80;;;;;;6190462;28;20478;-81